createdAt,value
2018-05-09T00:09:06.305Z,13.6
2018-05-09T00:14:01.320Z,13.5
2018-05-09T00:19:06.297Z,13.4
2018-05-09T00:29:05.465Z,13.3
2018-05-09T00:34:01.299Z,13.2
2018-05-09T00:39:01.367Z,13.0
2018-05-09T00:49:05.474Z,12.9
2018-05-09T00:54:01.289Z,12.8
2018-05-09T00:59:04.448Z,12.7
2018-05-09T01:14:02.343Z,12.7
2018-05-09T01:19:06.391Z,12.6
2018-05-09T01:34:03.362Z,12.5
2018-05-09T01:44:06.291Z,12.4
2018-05-09T01:54:01.413Z,12.3
2018-05-09T01:59:04.555Z,12.2
2018-05-09T02:04:02.272Z,12.1
2018-05-09T02:14:01.134Z,12.0
2018-05-09T02:29:01.454Z,12.0
2018-05-09T02:44:01.499Z,12.0
2018-05-09T02:59:01.496Z,12.0
2018-05-09T03:04:01.593Z,11.9
2018-05-09T03:19:01.448Z,11.9
2018-05-09T03:34:01.449Z,11.9
2018-05-09T03:49:01.516Z,11.9
2018-05-09T03:59:01.549Z,12.0
2018-05-09T04:09:01.402Z,12.1
2018-05-09T04:19:01.367Z,12.2
2018-05-09T04:24:01.453Z,12.3
2018-05-09T04:29:01.404Z,12.4
2018-05-09T04:39:06.427Z,12.6
2018-05-09T04:49:01.390Z,12.8
2018-05-09T04:54:01.389Z,12.9
2018-05-09T04:59:01.388Z,13.0
2018-05-09T05:04:01.363Z,13.1
2018-05-09T05:09:01.398Z,13.3
2018-05-09T05:14:01.460Z,13.4
2018-05-09T05:19:01.416Z,13.6
2018-05-09T05:30:01.398Z,13.8
2018-05-09T05:35:01.500Z,13.9
2018-05-09T05:40:01.409Z,14.1
2018-05-09T05:45:01.712Z,14.2
2018-05-09T05:50:02.289Z,14.4
2018-05-09T05:55:01.255Z,14.5
2018-05-09T06:00:06.370Z,14.7
2018-05-09T06:05:01.276Z,14.8
2018-05-09T06:10:05.434Z,14.9
2018-05-09T06:15:01.395Z,15.1
2018-05-09T06:20:03.428Z,15.2
2018-05-09T06:25:01.251Z,15.4
2018-05-09T06:30:06.488Z,15.6
2018-05-09T06:35:01.259Z,15.8
2018-05-09T06:40:06.295Z,16.0
2018-05-09T06:45:01.438Z,16.2
2018-05-09T06:50:03.368Z,16.5
2018-05-09T06:55:01.298Z,16.7
2018-05-09T07:00:04.118Z,16.9
2018-05-09T07:05:01.309Z,17.1
2018-05-09T07:10:03.432Z,17.3
2018-05-09T07:15:06.506Z,17.5
2018-05-09T07:20:06.289Z,17.8
2018-05-09T07:25:01.257Z,18.0
2018-05-09T07:30:06.510Z,18.2
2018-05-09T07:35:02.292Z,18.3
2018-05-09T07:40:01.261Z,18.5
2018-05-09T07:45:01.404Z,18.6
2018-05-09T07:50:01.323Z,18.8
2018-05-09T07:55:01.293Z,18.9
2018-05-09T08:00:02.485Z,19.1
2018-05-09T08:05:01.300Z,19.3
2018-05-09T08:10:06.419Z,19.5
2018-05-09T08:15:01.242Z,19.7
2018-05-09T08:20:02.375Z,19.9
2018-05-09T08:25:01.256Z,20.0
2018-05-09T08:30:06.463Z,20.2
2018-05-09T08:35:01.265Z,20.3
2018-05-09T08:40:02.278Z,20.5
2018-05-09T08:45:01.415Z,20.6
2018-05-09T08:50:01.354Z,20.8
2018-05-09T08:55:01.328Z,20.9
2018-05-09T09:00:01.612Z,21.1
2018-05-09T09:05:01.303Z,21.2
2018-05-09T09:10:01.285Z,21.4
2018-05-09T09:15:01.442Z,21.5
2018-05-09T09:20:06.289Z,21.7
2018-05-09T09:30:06.323Z,21.9
2018-05-09T09:45:04.571Z,22.0
2018-05-09T09:50:01.371Z,22.1
2018-05-09T09:55:01.268Z,22.2
2018-05-09T10:00:05.682Z,22.3
2018-05-09T10:05:01.275Z,22.4
2018-05-09T10:10:01.456Z,22.5
2018-05-09T10:15:01.448Z,22.5
2018-05-09T10:20:01.318Z,22.7
2018-05-09T10:30:01.469Z,22.9
2018-05-09T10:35:01.275Z,23.0
2018-05-09T10:40:01.269Z,23.2
2018-05-09T10:45:01.432Z,23.3
2018-05-09T10:50:02.280Z,23.4
2018-05-09T10:55:01.285Z,23.5
2018-05-09T11:00:06.475Z,23.6
2018-05-09T11:10:02.318Z,23.7
2018-05-09T11:15:01.486Z,23.7
2018-05-09T11:20:01.485Z,23.8
2018-05-09T11:30:01.503Z,23.9
2018-05-09T11:45:02.428Z,24.0
2018-05-09T11:55:01.416Z,24.1
2018-05-09T12:00:01.469Z,24.2
2018-05-09T12:10:03.412Z,24.3
2018-05-09T12:15:01.636Z,24.3
2018-05-09T12:30:02.407Z,24.3
2018-05-09T12:45:02.533Z,24.3
2018-05-09T13:00:09.533Z,24.4
2018-05-09T13:05:01.242Z,24.5
2018-05-09T13:15:06.517Z,24.6
2018-05-09T13:20:02.275Z,24.5
2018-05-09T13:25:01.264Z,24.4
2018-05-09T13:30:02.437Z,24.4
2018-05-09T13:35:01.282Z,24.3
2018-05-09T13:40:11.358Z,24.2
2018-05-09T13:45:06.442Z,24.2
2018-05-09T13:55:06.297Z,24.1
2018-05-09T14:00:02.470Z,24.1
2018-05-09T14:10:01.470Z,24.0
2018-05-09T14:15:01.455Z,24.0
2018-05-09T14:30:07.118Z,23.9
2018-05-09T14:35:01.307Z,24.0
2018-05-09T14:40:01.305Z,23.9
2018-05-09T14:45:01.393Z,23.9
2018-05-09T15:00:11.463Z,23.8
2018-05-09T15:05:01.315Z,23.7
2018-05-09T15:10:04.455Z,23.6
2018-05-09T15:15:06.391Z,23.5
2018-05-09T15:20:06.332Z,23.4
2018-05-09T15:25:01.287Z,23.3
2018-05-09T15:30:01.433Z,23.2
2018-05-09T15:40:02.411Z,23.1
2018-05-09T15:45:01.408Z,23.0
2018-05-09T15:50:01.367Z,22.9
2018-05-09T15:56:01.259Z,22.8
2018-05-09T16:01:01.270Z,22.5
2018-05-09T16:06:01.290Z,22.4
2018-05-09T16:11:01.327Z,22.0
2018-05-09T16:16:01.282Z,21.8
2018-05-09T16:21:06.549Z,21.4
2018-05-09T16:26:01.426Z,21.2
2018-05-09T16:31:02.525Z,20.9
2018-05-09T16:36:01.360Z,20.8
2018-05-09T16:41:01.438Z,20.6
2018-05-09T16:46:01.387Z,20.5
2018-05-09T16:51:01.457Z,20.3
2018-05-09T16:56:01.425Z,20.2
2018-05-09T17:01:06.386Z,20.1
2018-05-09T17:06:06.426Z,20.0
2018-05-09T17:11:01.453Z,19.8
2018-05-09T17:16:01.410Z,19.7
2018-05-09T17:21:01.426Z,19.6
2018-05-09T17:26:01.427Z,19.5
2018-05-09T17:31:02.486Z,19.4
2018-05-09T17:36:01.448Z,19.2
2018-05-09T17:41:01.387Z,19.1
2018-05-09T17:51:01.614Z,18.8
2018-05-09T17:56:01.387Z,18.7
2018-05-09T18:01:01.497Z,18.5
2018-05-09T18:06:01.392Z,18.3
2018-05-09T18:11:01.393Z,17.9
2018-05-09T18:16:01.479Z,17.8
2018-05-09T18:21:01.430Z,17.5
2018-05-09T18:26:01.429Z,17.4
2018-05-09T18:32:01.390Z,17.2
2018-05-09T18:37:02.556Z,17.1
2018-05-09T18:42:01.458Z,16.9
2018-05-09T18:47:01.426Z,16.8
2018-05-09T18:52:01.436Z,16.7
2018-05-09T18:57:01.396Z,16.6
2018-05-09T19:07:01.420Z,16.5
2018-05-09T19:12:01.436Z,16.4
2018-05-09T19:17:01.444Z,16.3
2018-05-09T19:22:01.448Z,16.2
2018-05-09T19:27:01.392Z,16.1
2018-05-09T19:37:01.237Z,15.9
2018-05-09T19:42:01.297Z,15.8
2018-05-09T19:47:01.275Z,15.7
2018-05-09T19:52:01.309Z,15.6
2018-05-09T19:57:01.283Z,15.5
2018-05-09T20:02:01.271Z,15.4
2018-05-09T20:07:01.313Z,15.3
2018-05-09T20:17:01.334Z,15.1
2018-05-09T20:22:01.258Z,15.0
2018-05-09T20:27:01.297Z,14.9
2018-05-09T20:37:01.249Z,14.8
2018-05-09T20:42:01.293Z,14.7
2018-05-09T20:47:01.315Z,14.6
2018-05-09T21:02:02.298Z,14.5
2018-05-09T21:12:03.369Z,14.4
2018-05-09T21:17:01.251Z,14.3
2018-05-09T21:27:06.310Z,14.2
2018-05-09T21:42:11.285Z,14.1
2018-05-09T21:52:04.435Z,14.0
2018-05-09T22:02:02.276Z,13.9
2018-05-09T22:13:05.485Z,13.8
2018-05-09T22:23:01.554Z,13.7
2018-05-09T22:38:02.362Z,13.6
2018-05-09T22:48:01.445Z,13.5
2018-05-09T22:58:06.376Z,13.4
2018-05-09T23:13:01.374Z,13.3
2018-05-09T23:23:01.337Z,13.2
2018-05-09T23:38:04.515Z,13.1
2018-05-09T23:53:06.290Z,13.0
2018-05-09T23:58:06.287Z,13.1
